Time;durP1;ratioP1;P1;durP2;ratioP2;P2;SDS_P1;SDS_P2;PMS_P1;PMS_P2;Temp;Humidity;BMP_temperature;BMP_pressure;BME280_temperature;BME280_humidity;BME280_pressure;Samples;Min_cycle;Max_cycle;Signal;HPM_P1;HPM_P2
2021/10/22 05:26:37;;;;;;;1.56;1.05;;;;;;;1.67;92.09;99573.91;2298160;73;21533;31
2021/10/22 05:29:41;;;;;;;1.85;1.10;;;;;;;1.62;92.07;99569.47;2326601;69;20250;-81
2021/10/22 05:32:43;;;;;;;1.19;1.00;;;;;;;1.57;92.12;99573.53;2330406;66;30301;-82
2021/10/22 05:35:47;;;;;;;6.31;1.10;;;;;;;1.61;92.46;99570.25;2325650;69;20245;-81
2021/10/22 05:38:51;;;;;;;1.30;1.17;;;;;;;1.62;92.42;99569.47;2339672;68;20375;-82
2021/10/22 05:41:57;;;;;;;2.84;1.30;;;;;;;1.57;92.36;99566.72;2327427;68;20264;-82
2021/10/22 05:45:04;;;;;;;1.69;1.20;;;;;;;1.57;92.52;99571.84;2337400;68;20269;-83
2021/10/22 05:48:09;;;;;;;1.36;1.26;;;;;;;1.58;92.70;99571.03;2335936;68;979866;-82
2021/10/22 05:51:13;;;;;;;8.25;1.25;;;;;;;1.58;92.67;99575.28;2339430;68;20111;-82
2021/10/22 05:54:17;;;;;;;2.20;1.25;;;;;;;1.54;92.44;99578.56;2345676;68;20245;-82
2021/10/22 05:57:20;;;;;;;5.01;1.64;;;;;;;1.51;92.61;99589.56;2350030;68;20256;-82
2021/10/22 06:00:23;;;;;;;1.88;1.33;;;;;;;1.50;92.64;99587.81;2347562;68;20241;-81
2021/10/22 09:28:37;;;;;;;3.54;1.55;;;;;;;9.63;80.73;99756.19;2296388;69;20352;-80
2021/10/22 09:31:44;;;;;;;4.88;1.15;;;;;;;10.02;78.06;99752.03;2326917;68;20319;-81
2021/10/22 09:34:51;;;;;;;7.16;1.49;;;;;;;10.17;76.72;99758.16;2330956;68;20329;-84
2021/10/22 09:37:54;;;;;;;3.41;1.10;;;;;;;10.38;74.79;99764.28;2328530;69;20112;-82
2021/10/22 09:41:04;;;;;;;4.68;0.88;;;;;;;10.47;73.40;99767.78;2333922;68;20108;-83
2021/10/22 09:44:22;;;;;;;7.61;1.25;;;;;;;10.56;73.52;99767.78;2336762;68;20129;-82
2021/10/22 09:47:26;;;;;;;5.20;1.00;;;;;;;10.73;73.36;99772.13;2337662;66;31695;-82
2021/10/22 09:50:29;;;;;;;6.01;1.06;;;;;;;10.95;73.29;99780.81;2340629;68;20145;-82
2021/10/22 09:53:36;;;;;;;9.06;1.56;;;;;;;11.11;72.97;99780.81;2338645;68;20351;-82
2021/10/22 09:56:49;;;;;;;5.28;1.09;;;;;;;11.22;71.77;99778.22;2344450;68;20209;-83
2021/10/22 10:00:03;;;;;;;5.74;1.38;;;;;;;11.23;70.02;99773.88;2339442;68;20132;-83
2021/10/22 10:03:08;;;;;;;6.56;1.23;;;;;;;11.31;70.41;99788.63;2348881;66;34782;-82
2021/10/22 13:01:31;;;;;;;2.51;0.63;;;;;;;11.11;66.95;99792.94;2298046;69;20204;31
2021/10/22 13:04:34;;;;;;;2.63;0.79;;;;;;;11.16;66.35;99794.69;2359229;68;20207;-82
2021/10/22 13:07:53;;;;;;;3.72;1.10;;;;;;;11.06;65.41;99795.53;2357008;68;20128;-82
2021/10/22 13:11:16;;;;;;;1.63;0.51;;;;;;;11.13;65.43;99796.41;2349392;68;20100;-81
2021/10/22 21:00:16;;;;;;;4.47;0.85;;;;;;;8.44;86.41;100102.94;2340701;68;20328;-81
2021/10/22 21:03:19;;;;;;;1.86;0.77;;;;;;;8.45;86.71;100106.41;2329602;68;20274;-81
2021/10/22 21:06:23;;;;;;;2.04;0.70;;;;;;;8.43;87.06;100113.22;2346896;68;20237;-81
2021/10/22 21:09:28;;;;;;;3.70;0.75;;;;;;;8.39;87.18;100107.16;2339117;68;20240;-79
2021/10/22 21:12:31;;;;;;;1.83;0.60;;;;;;;8.37;87.46;100110.56;2346829;68;20308;-80
2021/10/22 21:15:34;;;;;;;5.93;0.90;;;;;;;8.36;87.64;100101.06;2341296;68;20260;-80
2021/10/22 21:18:37;;;;;;;6.44;1.20;;;;;;;8.35;87.63;100113.13;2345065;68;20260;-80
2021/10/22 21:21:40;;;;;;;5.54;0.98;;;;;;;8.35;87.37;100120.88;2343579;68;20252;-80
2021/10/22 21:24:42;;;;;;;4.22;1.13;;;;;;;8.37;87.22;100120.91;2348569;68;20260;-79
2021/10/22 21:27:45;;;;;;;2.08;0.85;;;;;;;8.37;87.35;100129.53;2348522;68;20241;-80
2021/10/22 21:30:49;;;;;;;3.41;0.88;;;;;;;8.37;87.58;100126.97;2344355;68;20310;-81
2021/10/22 21:33:52;;;;;;;4.95;1.10;;;;;;;8.37;87.68;100129.53;2351300;68;20309;-81
2021/10/22 21:36:55;;;;;;;3.74;1.00;;;;;;;8.38;87.56;100133.00;2341380;69;20304;-80
2021/10/22 21:39:57;;;;;;;4.71;0.75;;;;;;;8.37;87.50;100129.53;2337037;68;20373;-81
2021/10/22 21:43:00;;;;;;;6.43;1.20;;;;;;;8.38;87.54;100125.25;2344154;68;20249;-80
2021/10/22 23:48:45;;;;;;;2.22;0.80;;;;;;;7.81;91.88;100173.34;2324474;68;20336;-80
2021/10/22 23:51:47;;;;;;;1.23;0.50;;;;;;;7.82;91.88;100184.56;2334977;69;20274;-80
2021/10/22 23:54:50;;;;;;;2.09;0.90;;;;;;;7.85;91.95;100182.03;2338627;68;20376;-80
2021/10/22 23:57:52;;;;;;;3.65;0.77;;;;;;;7.88;91.91;100185.53;2338632;68;20331;-79
